createdAt,value
2023-02-24T00:01:57.484Z,2.50
2023-02-24T00:04:24.241Z,2.80
2023-02-24T00:06:51.023Z,2.97
2023-02-24T00:12:14.041Z,2.40
2023-02-24T00:14:43.390Z,2.70
2023-02-24T00:17:11.021Z,2.30
2023-02-24T00:19:38.672Z,2.65
2023-02-24T00:22:07.541Z,2.22
2023-02-24T00:24:35.183Z,2.40
2023-02-24T00:27:03.634Z,2.70
2023-02-24T00:29:30.469Z,2.13
2023-02-24T00:31:58.814Z,2.17
2023-02-24T00:34:31.175Z,2.33
2023-02-24T00:36:58.873Z,2.10
2023-02-24T00:39:26.649Z,2.50
2023-02-24T00:41:53.423Z,2.87
2023-02-24T00:44:20.127Z,2.20
2023-02-24T00:46:46.934Z,2.40
2023-02-24T00:49:19.626Z,2.10
2023-02-24T00:51:48.836Z,2.40
2023-02-24T00:54:16.958Z,2.42
2023-02-24T00:59:32.979Z,2.50
2023-02-24T01:01:59.780Z,2.00
2023-02-24T01:04:26.627Z,2.40
2023-02-24T01:06:54.307Z,2.40
2023-02-24T01:09:21.436Z,2.28
2023-02-24T01:11:49.775Z,2.10
2023-02-24T01:14:19.109Z,1.90
2023-02-24T01:16:46.071Z,2.20
2023-02-24T01:19:12.869Z,1.92
2023-02-24T01:21:39.592Z,2.10
2023-02-24T01:24:06.613Z,2.00
2023-02-24T01:26:33.367Z,2.00
2023-02-24T01:29:00.129Z,2.00
2023-02-24T01:31:27.010Z,1.60
2023-02-24T01:33:54.832Z,1.90
2023-02-24T01:36:25.892Z,2.28
2023-02-24T01:38:52.883Z,1.60
2023-02-24T01:41:25.590Z,1.60
2023-02-24T01:43:58.524Z,1.80
2023-02-24T01:49:19.490Z,1.80
2023-02-24T01:51:57.173Z,1.55
2023-02-24T01:54:28.151Z,1.80
2023-02-24T01:59:46.141Z,1.70
2023-02-24T02:05:06.443Z,1.60
2023-02-24T02:10:01.462Z,1.38
2023-02-24T02:12:28.874Z,1.30
2023-02-24T02:14:57.423Z,1.40
2023-02-24T02:17:33.073Z,1.45
2023-02-24T02:20:26.830Z,1.50
2023-02-24T02:23:08.646Z,1.80
2023-02-24T02:26:03.733Z,1.55
2023-02-24T02:28:48.406Z,1.30
2023-02-24T02:31:36.347Z,1.58
2023-02-24T02:34:21.382Z,1.70
2023-02-24T02:36:57.176Z,1.67
2023-02-24T02:39:51.283Z,1.35
2023-02-24T02:42:36.179Z,1.60
2023-02-24T02:45:17.505Z,1.52
2023-02-24T02:48:01.941Z,1.83
2023-02-24T02:50:55.322Z,1.73
2023-02-24T02:53:33.239Z,1.30
2023-02-24T02:56:07.276Z,1.90
2023-02-24T02:58:40.522Z,1.50
2023-02-24T03:01:09.806Z,1.60
2023-02-24T03:03:42.182Z,1.60
2023-02-24T03:06:24.638Z,1.20
2023-02-24T03:09:10.323Z,1.40
2023-02-24T03:11:39.264Z,1.80
2023-02-24T03:14:10.575Z,1.30
2023-02-24T03:16:38.953Z,1.30
2023-02-24T03:19:08.589Z,1.48
2023-02-24T03:21:40.791Z,1.52
2023-02-24T03:24:08.174Z,1.27
2023-02-24T03:29:31.848Z,1.30
2023-02-24T03:32:07.280Z,1.40
2023-02-24T03:34:40.658Z,1.60
2023-02-24T03:39:56.486Z,1.50
2023-02-24T03:45:15.375Z,1.60
2023-02-24T03:50:29.121Z,1.50
2023-02-24T03:53:30.275Z,1.63
2023-02-24T03:56:05.920Z,1.95
2023-02-24T03:59:10.104Z,2.00
2023-02-24T04:01:42.439Z,1.35
2023-02-24T04:04:34.106Z,1.50
2023-02-24T04:07:08.076Z,2.00
2023-02-24T04:13:12.361Z,1.67
2023-02-24T04:15:43.884Z,2.10
2023-02-24T04:18:15.831Z,2.00
2023-02-24T04:20:43.885Z,1.80
2023-02-24T04:23:17.635Z,2.10
2023-02-24T04:25:47.685Z,2.03
2023-02-24T04:28:15.669Z,1.67
2023-02-24T04:30:47.380Z,1.70
2023-02-24T04:33:14.422Z,2.50
2023-02-24T04:35:44.151Z,2.10
2023-02-24T04:38:11.432Z,2.35
2023-02-24T04:40:38.350Z,2.00
2023-02-24T04:43:05.114Z,2.20
2023-02-24T04:45:32.093Z,2.00
2023-02-24T04:48:01.058Z,1.85
2023-02-24T04:50:34.396Z,1.70
2023-02-24T04:55:31.992Z,4.47
2023-02-24T04:58:00.180Z,1.70
2023-02-24T05:03:16.520Z,2.00
2023-02-24T05:05:58.083Z,1.88
2023-02-24T05:08:26.255Z,2.60
2023-02-24T05:10:53.273Z,2.80
2023-02-24T05:13:25.927Z,8.05
2023-02-24T05:15:53.614Z,2.10
2023-02-24T05:18:20.508Z,2.00
2023-02-24T05:20:49.998Z,1.70
2023-02-24T05:23:16.739Z,2.10
2023-02-24T05:25:43.549Z,2.05
2023-02-24T05:28:10.396Z,2.10
2023-02-24T05:30:37.189Z,1.70
2023-02-24T05:33:04.070Z,1.70
2023-02-24T05:35:30.829Z,1.80
2023-02-24T05:37:57.629Z,2.00
2023-02-24T05:40:24.387Z,2.20
2023-02-24T05:42:51.177Z,2.50
2023-02-24T05:45:17.944Z,2.20
2023-02-24T05:47:44.689Z,3.65
2023-02-24T05:50:12.362Z,1.53
2023-02-24T05:52:39.299Z,2.15
2023-02-24T05:55:07.427Z,1.70
2023-02-24T05:57:34.196Z,1.80
2023-02-24T06:00:01.730Z,1.80
2023-02-24T06:02:28.519Z,1.80
2023-02-24T06:07:25.117Z,1.60
2023-02-24T06:09:56.869Z,1.67
2023-02-24T06:12:30.242Z,1.50
2023-02-24T06:14:57.086Z,1.63
2023-02-24T06:17:24.015Z,1.40
2023-02-24T06:19:52.236Z,1.60
2023-02-24T06:22:21.828Z,1.70
2023-02-24T06:24:48.911Z,2.15
2023-02-24T06:27:18.106Z,1.60
2023-02-24T06:29:46.644Z,1.70
2023-02-24T06:32:13.606Z,1.67
2023-02-24T06:34:40.768Z,1.30
2023-02-24T06:37:08.526Z,1.73
2023-02-24T06:39:36.805Z,1.60
2023-02-24T06:42:04.702Z,1.70
2023-02-24T06:44:32.825Z,1.70
2023-02-24T06:47:00.157Z,1.70
2023-02-24T06:49:27.627Z,1.48
2023-02-24T06:51:55.201Z,1.65
2023-02-24T06:54:26.235Z,1.63
2023-02-24T06:56:52.976Z,1.70
2023-02-24T06:59:19.962Z,1.80
2023-02-24T07:01:46.943Z,1.60
2023-02-24T07:04:14.572Z,1.80
2023-02-24T07:06:43.253Z,1.55
2023-02-24T07:09:12.565Z,1.75
2023-02-24T07:11:42.333Z,1.75
2023-02-24T07:14:10.412Z,2.20
2023-02-24T07:19:27.203Z,1.80
2023-02-24T07:24:46.706Z,2.50
2023-02-24T07:30:03.004Z,1.80
2023-02-24T07:32:29.807Z,1.75
2023-02-24T07:34:56.591Z,1.80
2023-02-24T07:37:23.329Z,2.30
2023-02-24T07:39:50.104Z,1.70
2023-02-24T07:42:16.948Z,2.00
2023-02-24T07:44:44.084Z,2.50
2023-02-24T07:47:10.900Z,2.20
2023-02-24T07:49:39.461Z,1.60
2023-02-24T07:52:06.248Z,2.15
2023-02-24T07:54:33.021Z,3.60
2023-02-24T07:57:00.044Z,1.85
2023-02-24T07:59:34.993Z,2.20
2023-02-24T08:02:02.135Z,2.00
2023-02-24T08:04:30.549Z,2.30
2023-02-24T08:06:57.837Z,2.33
2023-02-24T08:12:17.018Z,2.60
2023-02-24T08:17:32.060Z,2.30
2023-02-24T08:19:58.824Z,2.47
2023-02-24T08:22:25.613Z,2.50
2023-02-24T08:24:57.245Z,2.40
2023-02-24T08:27:25.759Z,2.65
2023-02-24T08:29:54.344Z,2.72
2023-02-24T08:32:21.469Z,2.95
2023-02-24T08:34:48.312Z,2.67
2023-02-24T08:37:15.065Z,3.30
2023-02-24T08:39:43.018Z,3.30
2023-02-24T08:42:10.760Z,3.00
2023-02-24T08:44:37.512Z,3.20
2023-02-24T08:47:04.377Z,3.65
2023-02-24T08:49:31.300Z,3.80
2023-02-24T08:51:58.233Z,4.72
2023-02-24T08:54:25.052Z,3.40
2023-02-24T08:56:51.803Z,3.53
2023-02-24T08:59:19.339Z,3.80
2023-02-24T09:01:50.753Z,4.18
2023-02-24T09:04:20.449Z,3.72
2023-02-24T09:06:55.668Z,4.10
2023-02-24T09:09:25.200Z,4.00
2023-02-24T09:14:27.438Z,4.40
2023-02-24T09:16:57.490Z,4.13
2023-02-24T09:19:24.214Z,4.50
2023-02-24T09:21:50.989Z,4.30
2023-02-24T09:24:17.984Z,3.67
2023-02-24T09:29:31.363Z,4.68
2023-02-24T09:31:58.585Z,4.70
2023-02-24T09:34:25.371Z,4.80
2023-02-24T09:36:52.105Z,4.63
2023-02-24T09:39:18.888Z,5.40
2023-02-24T09:41:47.418Z,4.90
2023-02-24T09:44:16.876Z,4.97
2023-02-24T09:46:48.240Z,5.30
2023-02-24T09:49:18.188Z,5.45
2023-02-24T09:51:45.749Z,5.28
2023-02-24T09:54:18.795Z,4.80
2023-02-24T09:56:58.570Z,4.40
2023-02-24T09:59:36.377Z,4.20
2023-02-24T10:02:27.259Z,4.22
2023-02-24T10:04:24.529Z,0
2023-02-24T10:05:02.619Z,3.90
2023-02-24T10:07:33.070Z,3.50
2023-02-24T10:10:05.461Z,3.60
2023-02-24T10:12:35.287Z,3.93
2023-02-24T10:15:13.668Z,3.95
2023-02-24T10:17:40.584Z,4.00
2023-02-24T10:20:16.695Z,4.20
2023-02-24T10:22:56.653Z,3.97
2023-02-24T10:25:26.742Z,3.80
2023-02-24T10:27:18.154Z,0
2023-02-24T10:27:59.363Z,4.30
2023-02-24T10:30:36.930Z,4.10
2023-02-24T10:33:05.668Z,4.20
2023-02-24T10:35:35.064Z,3.90
2023-02-24T10:38:03.389Z,3.80
2023-02-24T10:40:30.141Z,3.40
2023-02-24T10:43:05.439Z,3.90
2023-02-24T10:45:39.684Z,3.88
2023-02-24T10:48:07.795Z,3.70
2023-02-24T10:50:55.008Z,3.58
2023-02-24T10:53:27.451Z,3.90
2023-02-24T10:55:58.290Z,4.03
2023-02-24T10:58:34.951Z,3.70
2023-02-24T11:01:33.802Z,4.20
2023-02-24T11:04:03.581Z,4.10
2023-02-24T11:06:33.477Z,3.90
2023-02-24T11:11:48.647Z,4.32
2023-02-24T11:17:03.884Z,3.80
2023-02-24T11:19:33.237Z,3.60
2023-02-24T11:24:50.024Z,3.20
2023-02-24T11:30:16.726Z,3.47
2023-02-24T11:33:07.560Z,4.50
2023-02-24T11:35:43.367Z,3.45
2023-02-24T11:38:32.584Z,3.60
2023-02-24T11:41:14.532Z,2.97
2023-02-24T11:43:45.198Z,3.10
2023-02-24T11:46:17.389Z,2.93
2023-02-24T11:48:49.189Z,2.80
2023-02-24T11:51:31.424Z,2.70
2023-02-24T11:54:11.046Z,3.00
2023-02-24T11:56:45.087Z,3.10
2023-02-24T11:59:18.472Z,2.50
2023-02-24T12:02:06.905Z,2.60
2023-02-24T12:04:43.308Z,2.70
2023-02-24T12:07:22.059Z,2.50
2023-02-24T12:10:07.070Z,2.55
2023-02-24T12:15:56.330Z,2.83
2023-02-24T12:18:39.459Z,2.53
2023-02-24T12:21:17.898Z,2.70
2023-02-24T12:23:46.314Z,3.10
2023-02-24T12:29:12.792Z,2.97
2023-02-24T12:32:06.979Z,2.83
2023-02-24T12:34:48.505Z,3.25
2023-02-24T12:37:40.157Z,3.00
2023-02-24T12:40:33.194Z,3.10
2023-02-24T12:43:18.778Z,3.30
2023-02-24T12:45:51.585Z,3.23
2023-02-24T12:48:27.654Z,3.10
2023-02-24T12:51:12.552Z,3.40
2023-02-24T12:53:59.456Z,3.50
2023-02-24T12:57:00.050Z,3.90
2023-02-24T13:02:45.834Z,5.63
2023-02-24T13:05:39.676Z,4.70
2023-02-24T13:08:18.243Z,4.97
2023-02-24T13:11:20.884Z,4.70
2023-02-24T13:14:03.622Z,4.80
2023-02-24T13:16:33.056Z,4.35
2023-02-24T13:19:07.140Z,4.55
2023-02-24T13:21:34.478Z,4.20
2023-02-24T13:24:02.917Z,5.00
2023-02-24T13:26:32.077Z,4.97
2023-02-24T13:29:09.284Z,4.80
2023-02-24T13:31:48.994Z,4.72
2023-02-24T13:34:15.795Z,5.28
2023-02-24T13:36:50.186Z,5.40
2023-02-24T13:39:31.278Z,5.80
2023-02-24T13:42:26.011Z,5.20
2023-02-24T13:45:15.653Z,5.82
2023-02-24T13:47:59.766Z,5.60
2023-02-24T13:50:59.155Z,5.97
2023-02-24T13:53:34.523Z,5.80
2023-02-24T13:56:25.890Z,6.82
2023-02-24T13:58:55.546Z,7.72
2023-02-24T14:01:23.976Z,6.60
2023-02-24T14:04:22.585Z,6.50
2023-02-24T14:06:56.335Z,6.47
2023-02-24T14:09:28.282Z,6.18
2023-02-24T14:12:05.532Z,7.50
2023-02-24T14:14:32.763Z,6.38
2023-02-24T14:16:59.972Z,6.15
2023-02-24T14:19:26.929Z,6.32
2023-02-24T14:24:45.479Z,7.70
2023-02-24T14:27:24.387Z,8.40
2023-02-24T14:29:52.727Z,10.30
2023-02-24T14:32:25.972Z,9.13
2023-02-24T14:34:54.081Z,9.45
2023-02-24T14:37:30.760Z,9.95
2023-02-24T14:39:59.795Z,9.65
2023-02-24T14:42:27.753Z,9.38
2023-02-24T14:44:57.761Z,9.23
2023-02-24T14:47:28.143Z,9.05
2023-02-24T14:50:00.475Z,9.30
2023-02-24T14:52:48.128Z,8.85
2023-02-24T14:55:21.973Z,8.82
2023-02-24T15:07:28.728Z,9.93
2023-02-24T15:09:56.133Z,10.00
2023-02-24T15:12:44.496Z,9.90
2023-02-24T15:15:29.626Z,9.38
2023-02-24T15:17:59.705Z,9.60
2023-02-24T15:20:33.237Z,9.95
2023-02-24T15:23:00.562Z,10.00
2023-02-24T15:25:42.980Z,9.93
2023-02-24T15:28:24.072Z,9.27
2023-02-24T15:30:59.689Z,10.00
2023-02-24T15:33:32.347Z,9.73
2023-02-24T15:36:00.028Z,9.40
2023-02-24T15:41:20.645Z,7.95
2023-02-24T15:43:50.307Z,8.10
2023-02-24T15:46:32.460Z,7.70
2023-02-24T15:48:59.978Z,7.30
2023-02-24T15:51:32.902Z,7.90
2023-02-24T15:54:01.789Z,6.80
2023-02-24T15:56:30.790Z,6.80
2023-02-24T15:58:57.553Z,7.35
2023-02-24T16:01:25.891Z,7.10
2023-02-24T16:03:52.666Z,6.80
2023-02-24T16:06:21.872Z,6.88
2023-02-24T16:08:50.623Z,6.95
2023-02-24T16:14:13.850Z,6.30
2023-02-24T16:19:28.087Z,6.47
2023-02-24T16:21:54.850Z,6.20
2023-02-24T16:24:21.919Z,6.20
2023-02-24T16:26:48.792Z,6.25
2023-02-24T16:29:15.926Z,6.80
2023-02-24T16:31:43.048Z,6.23
2023-02-24T16:34:14.876Z,5.88
2023-02-24T16:36:42.960Z,6.40
2023-02-24T16:39:12.297Z,6.20
2023-02-24T16:41:39.060Z,6.47
2023-02-24T16:44:05.832Z,7.47
2023-02-24T16:46:38.046Z,6.90
2023-02-24T16:49:08.118Z,7.25
2023-02-24T16:51:35.232Z,7.20
2023-02-24T16:54:01.999Z,7.80
2023-02-24T16:56:28.750Z,7.72
2023-02-24T16:58:55.535Z,8.73
2023-02-24T17:01:22.332Z,8.00
2023-02-24T17:03:51.535Z,7.90
2023-02-24T17:06:21.945Z,8.20
2023-02-24T17:08:49.732Z,7.60
2023-02-24T17:11:19.061Z,8.13
2023-02-24T17:13:45.914Z,8.00
2023-02-24T17:16:12.708Z,8.02
2023-02-24T17:18:39.481Z,8.20
2023-02-24T17:21:06.339Z,8.30
2023-02-24T17:23:33.143Z,9.05
2023-02-24T17:26:01.857Z,9.00
2023-02-24T17:28:31.103Z,8.70
2023-02-24T17:30:57.895Z,8.45
2023-02-24T17:33:24.873Z,7.60
2023-02-24T17:35:51.693Z,8.15
2023-02-24T17:38:21.537Z,10.60
2023-02-24T17:40:48.432Z,9.83
2023-02-24T17:43:15.341Z,9.35
2023-02-24T17:45:44.331Z,7.50
2023-02-24T17:48:12.361Z,8.38
2023-02-24T17:50:44.829Z,8.45
2023-02-24T17:53:11.738Z,8.52
2023-02-24T17:55:39.512Z,8.18
2023-02-24T17:58:08.206Z,7.90
2023-02-24T18:00:35.001Z,8.23
2023-02-24T18:03:03.526Z,8.50
2023-02-24T18:05:30.514Z,7.53
2023-02-24T18:08:00.093Z,8.05
2023-02-24T18:10:26.884Z,8.18
2023-02-24T18:12:53.657Z,6.70
2023-02-24T18:15:20.433Z,7.20
2023-02-24T18:17:47.228Z,7.03
2023-02-24T18:20:14.141Z,6.70
2023-02-24T18:22:40.901Z,6.60
2023-02-24T18:25:08.002Z,5.28
2023-02-24T18:27:34.876Z,5.80
2023-02-24T18:30:01.672Z,7.15
2023-02-24T18:32:28.621Z,4.90
2023-02-24T18:34:55.555Z,3.90
2023-02-24T18:37:22.325Z,3.85
2023-02-24T18:39:49.073Z,3.50
2023-02-24T18:42:15.850Z,3.30
2023-02-24T18:44:42.591Z,3.00
2023-02-24T18:47:09.561Z,3.10
2023-02-24T18:49:37.118Z,5.05
2023-02-24T18:52:04.412Z,4.40
2023-02-24T18:54:31.909Z,3.30
2023-02-24T18:56:58.740Z,5.20
2023-02-24T18:59:25.558Z,3.95
2023-02-24T19:01:52.347Z,3.97
2023-02-24T19:04:19.142Z,3.40
2023-02-24T19:06:45.887Z,3.45
2023-02-24T19:09:12.663Z,3.25
2023-02-24T19:11:41.054Z,3.25
2023-02-24T19:14:11.010Z,3.60
2023-02-24T19:16:38.698Z,3.83
2023-02-24T19:19:05.518Z,3.63
2023-02-24T19:21:33.562Z,4.88
2023-02-24T19:24:01.746Z,3.90
2023-02-24T19:26:28.594Z,3.47
2023-02-24T19:28:57.558Z,3.88
2023-02-24T19:31:27.806Z,3.90
2023-02-24T19:34:00.712Z,3.70
2023-02-24T19:36:28.591Z,3.50
2023-02-24T19:38:55.510Z,6.47
2023-02-24T19:41:22.302Z,5.13
2023-02-24T19:43:49.206Z,6.28
2023-02-24T19:46:17.203Z,4.38
2023-02-24T19:48:44.875Z,4.55
2023-02-24T19:51:21.236Z,4.10
2023-02-24T19:53:51.575Z,4.63
2023-02-24T19:56:23.265Z,4.90
2023-02-24T19:58:53.617Z,4.20
2023-02-24T20:01:21.269Z,4.10
2023-02-24T20:03:48.299Z,3.40
2023-02-24T20:06:24.856Z,1.92
2023-02-24T20:08:52.097Z,1.30
2023-02-24T20:11:19.539Z,1.70
2023-02-24T20:13:46.614Z,2.00
2023-02-24T20:16:16.778Z,3.35
2023-02-24T20:18:44.233Z,1.40
2023-02-24T20:21:12.294Z,1.60
2023-02-24T20:23:40.461Z,1.10
2023-02-24T20:26:07.618Z,1.00
2023-02-24T20:28:34.387Z,1.45
2023-02-24T20:31:08.228Z,1.73
2023-02-24T20:33:35.267Z,1.75
2023-02-24T20:36:07.465Z,1.83
2023-02-24T20:38:34.293Z,1.90
2023-02-24T20:41:01.109Z,1.95
2023-02-24T20:43:27.943Z,1.88
2023-02-24T20:45:55.071Z,2.10
2023-02-24T20:48:22.052Z,2.10
2023-02-24T20:50:48.867Z,4.80
2023-02-24T20:53:15.849Z,4.37
2023-02-24T20:55:42.657Z,5.45
2023-02-24T20:58:09.419Z,3.40
2023-02-24T21:00:36.374Z,2.60
2023-02-24T21:03:03.135Z,3.10
2023-02-24T21:05:29.896Z,2.90
2023-02-24T21:07:56.698Z,3.00
2023-02-24T21:10:23.501Z,2.80
2023-02-24T21:12:50.362Z,2.40
2023-02-24T21:15:17.232Z,3.10
2023-02-24T21:17:44.075Z,3.97
2023-02-24T21:20:11.595Z,3.28
2023-02-24T21:22:41.576Z,2.60
2023-02-24T21:25:09.650Z,3.00
2023-02-24T21:27:37.157Z,2.90
2023-02-24T21:30:05.827Z,1.83
2023-02-24T21:32:32.745Z,2.40
2023-02-24T21:34:59.557Z,1.80
2023-02-24T21:37:26.354Z,1.90
2023-02-24T21:39:53.120Z,1.90
2023-02-24T21:42:19.951Z,2.10
2023-02-24T21:44:46.720Z,2.10
2023-02-24T21:47:13.477Z,4.40
2023-02-24T21:49:40.277Z,5.28
2023-02-24T21:52:07.051Z,3.13
2023-02-24T21:54:33.856Z,2.05
2023-02-24T21:57:00.686Z,1.90
2023-02-24T21:59:27.499Z,1.88
2023-02-24T22:01:54.373Z,1.90
2023-02-24T22:04:21.791Z,1.73
2023-02-24T22:06:48.617Z,1.65
2023-02-24T22:09:15.932Z,1.45
2023-02-24T22:11:43.641Z,1.10
2023-02-24T22:14:12.853Z,1.37
2023-02-24T22:16:40.444Z,1.30
2023-02-24T22:19:07.344Z,1.00
2023-02-24T22:21:34.405Z,1.00
2023-02-24T22:24:03.218Z,1.00
2023-02-24T22:26:30.992Z,1.00
2023-02-24T22:28:59.148Z,0.93
2023-02-24T22:31:30.088Z,0.90
2023-02-24T22:33:57.520Z,1.10
2023-02-24T22:36:30.298Z,1.10
2023-02-24T22:38:58.676Z,1.10
2023-02-24T22:41:28.286Z,0.95
2023-02-24T22:43:55.064Z,1.00
2023-02-24T22:46:24.969Z,0.90
2023-02-24T22:48:52.202Z,1.10
2023-02-24T22:51:19.968Z,1.00
2023-02-24T22:53:48.816Z,1.30
2023-02-24T22:56:18.759Z,1.13
2023-02-24T22:58:46.063Z,1.10
2023-02-24T23:01:19.019Z,1.00
2023-02-24T23:03:46.118Z,1.00
2023-02-24T23:06:16.171Z,0.90
2023-02-24T23:08:45.279Z,0.90
2023-02-24T23:11:21.951Z,1.00
2023-02-24T23:13:49.841Z,1.00
2023-02-24T23:16:20.053Z,1.10
2023-02-24T23:18:47.072Z,1.10
2023-02-24T23:21:13.969Z,1.40
2023-02-24T23:23:40.769Z,1.30
2023-02-24T23:26:07.546Z,0.90
2023-02-24T23:28:34.328Z,1.30
2023-02-24T23:31:01.332Z,1.10
2023-02-24T23:33:28.385Z,1.00
2023-02-24T23:35:55.262Z,1.30
2023-02-24T23:38:22.003Z,1.10
2023-02-24T23:40:50.824Z,1.42
2023-02-24T23:43:19.010Z,1.45
2023-02-24T23:45:46.585Z,1.60
2023-02-24T23:48:15.182Z,1.40
2023-02-24T23:50:44.498Z,1.70
2023-02-24T23:53:12.552Z,1.40
2023-02-24T23:55:40.461Z,1.60
2023-02-24T23:58:07.939Z,1.40
